Time;durP1;ratioP1;P1;durP2;ratioP2;P2;SDS_P1;SDS_P2;PMS_P1;PMS_P2;Temp;Humidity;BMP_temperature;BMP_pressure;BME280_temperature;BME280_humidity;BME280_pressure;Samples;Min_cycle;Max_cycle;Signal;HPM_P1;HPM_P2
2022/02/17 00:02:22;;;;;;;3.63;2.38;;;12.60;57.40;;;;;;4994594;28;20061;-62
2022/02/17 00:04:48;;;;;;;3.33;2.33;;;12.60;57.50;;;;;;4977451;28;20026;-64
2022/02/17 00:07:14;;;;;;;3.97;2.20;;;12.60;57.60;;;;;;4994127;28;20238;-63
2022/02/17 00:09:40;;;;;;;4.25;2.47;;;12.50;57.50;;;;;;4977871;28;20438;-63
2022/02/17 00:12:06;;;;;;;4.35;2.42;;;12.60;57.60;;;;;;4994698;28;20035;-65
2022/02/17 00:14:32;;;;;;;3.53;2.20;;;12.60;57.50;;;;;;4977854;28;20121;-63
2022/02/17 00:16:58;;;;;;;3.85;2.60;;;12.60;57.30;;;;;;4977085;28;20157;-63
2022/02/17 00:19:23;;;;;;;4.40;2.42;;;12.60;57.30;;;;;;4976679;28;20436;-65
2022/02/17 00:21:49;;;;;;;4.38;2.55;;;12.70;57.30;;;;;;4993194;28;20038;-63
2022/02/17 00:24:16;;;;;;;5.82;2.70;;;12.60;57.30;;;;;;4976981;28;20603;-63
2022/02/17 00:26:42;;;;;;;5.30;2.70;;;12.60;57.30;;;;;;4977454;28;20077;-63
2022/02/17 00:29:08;;;;;;;3.83;2.33;;;12.60;57.30;;;;;;4994451;28;20496;-63
2022/02/17 00:31:34;;;;;;;3.30;2.13;;;12.60;57.40;;;;;;4977354;28;20504;-63
2022/02/17 00:34:00;;;;;;;4.20;2.60;;;12.60;57.40;;;;;;4994232;28;20026;-63
2022/02/17 00:36:26;;;;;;;3.33;1.92;;;12.60;57.50;;;;;;4977352;28;20030;-64
2022/02/17 00:38:52;;;;;;;4.57;2.30;;;12.60;57.30;;;;;;4992929;28;20381;-64
2022/02/17 00:41:20;;;;;;;3.30;2.25;;;12.60;57.50;;;;;;4993376;28;20038;-64
2022/02/17 00:43:47;;;;;;;3.70;2.20;;;12.60;57.60;;;;;;4994653;28;20033;-62
2022/02/17 00:46:13;;;;;;;3.60;2.20;;;12.60;58.30;;;;;;4993773;28;20026;-64
2022/02/17 00:48:39;;;;;;;2.92;1.92;;;12.60;57.90;;;;;;4976687;28;20473;-64
2022/02/17 00:51:05;;;;;;;3.88;1.70;;;12.70;58.20;;;;;;4993483;28;20069;-64
2022/02/17 00:53:30;;;;;;;4.18;2.03;;;12.70;58.80;;;;;;4994100;28;20034;-63
2022/02/17 00:55:58;;;;;;;3.08;2.05;;;12.70;58.10;;;;;;4993538;28;20220;-67
2022/02/17 00:58:23;;;;;;;3.45;1.80;;;12.80;58.10;;;;;;4993474;28;20061;-65
2022/02/17 01:00:49;;;;;;;4.88;2.47;;;12.90;58.40;;;;;;4976569;28;20085;-68
2022/02/17 01:03:16;;;;;;;7.88;1.63;;;12.90;59.20;;;;;;4975208;28;20026;-63
2022/02/17 01:05:42;;;;;;;2.70;1.85;;;13.00;60.30;;;;;;4976217;28;20030;-64
2022/02/17 01:08:08;;;;;;;4.43;2.03;;;13.10;60.80;;;;;;4992210;28;20342;-51
2022/02/17 01:10:34;;;;;;;3.58;2.00;;;13.10;61.70;;;;;;4991591;28;20039;-51
2022/02/17 01:13:00;;;;;;;5.40;1.88;;;13.10;62.10;;;;;;4974611;28;20058;-49
2022/02/17 01:15:26;;;;;;;6.28;2.10;;;13.20;62.70;;;;;;4975311;28;20026;-49
2022/02/17 01:17:52;;;;;;;4.18;2.00;;;13.20;64.20;;;;;;4974976;28;20438;-52
2022/02/17 01:20:18;;;;;;;4.50;2.00;;;13.10;65.30;;;;;;4992078;28;20098;-51
2022/02/17 01:22:45;;;;;;;6.78;2.22;;;13.10;66.30;;;;;;4992568;28;20492;-50
2022/02/17 01:25:14;;;;;;;4.00;1.80;;;13.00;67.10;;;;;;4992157;28;20030;-50
2022/02/17 01:27:40;;;;;;;5.32;1.77;;;13.00;67.50;;;;;;4954245;28;20090;-50
2022/02/17 01:30:06;;;;;;;6.47;2.08;;;12.90;68.90;;;;;;4953395;28;20051;-50
2022/02/17 01:32:32;;;;;;;4.43;1.90;;;12.80;68.60;;;;;;4968027;28;20106;-53
2022/02/17 01:34:58;;;;;;;4.35;2.40;;;12.80;69.00;;;;;;4953615;28;20466;-54
2022/02/17 01:37:24;;;;;;;3.38;2.10;;;12.70;69.30;;;;;;4953536;28;20046;-48
2022/02/17 01:39:51;;;;;;;4.75;1.92;;;12.60;69.60;;;;;;4953631;28;20415;-49
2022/02/17 01:42:17;;;;;;;5.75;2.33;;;12.50;70.00;;;;;;4952083;29;20126;-48
2022/02/17 01:44:47;;;;;;;5.03;2.30;;;12.40;70.60;;;;;;4953601;28;20023;-51
2022/02/17 01:47:17;;;;;;;4.85;1.95;;;12.30;70.50;;;;;;4952943;28;20410;-49
2022/02/17 01:49:44;;;;;;;3.15;1.88;;;12.20;70.50;;;;;;4953868;28;20031;-53
2022/02/17 01:52:11;;;;;;;3.05;1.90;;;12.20;71.00;;;;;;4952990;28;20035;-51
2022/02/17 01:54:39;;;;;;;3.90;2.22;;;12.10;71.90;;;;;;4953844;28;20023;-52
2022/02/17 01:57:08;;;;;;;4.78;2.00;;;11.90;72.00;;;;;;4953433;29;20078;-54
2022/02/17 01:59:35;;;;;;;3.70;1.85;;;11.90;71.80;;;;;;4953705;28;20051;-53
2022/02/17 02:02:01;;;;;;;5.05;1.85;;;11.90;72.00;;;;;;4952486;28;20102;-52
2022/02/17 02:04:27;;;;;;;4.93;2.17;;;11.80;71.80;;;;;;4951778;29;20039;-51
2022/02/17 02:06:52;;;;;;;3.70;2.10;;;11.80;72.10;;;;;;4953139;28;20019;-52
2022/02/17 02:09:19;;;;;;;2.80;1.70;;;11.70;72.40;;;;;;4950768;29;20024;-50
2022/02/17 02:11:45;;;;;;;4.15;2.20;;;11.70;72.50;;;;;;4953123;28;20471;-50
2022/02/17 02:14:33;;;;;;;3.78;2.30;;;11.70;72.70;;;;;;4952446;28;20046;-51
2022/02/17 02:16:59;;;;;;;3.58;2.08;;;11.60;73.00;;;;;;4953008;29;20387;-54
2022/02/17 02:19:25;;;;;;;3.83;2.17;;;11.60;73.00;;;;;;4952864;28;20485;-52
2022/02/17 02:21:51;;;;;;;3.30;2.10;;;11.60;73.00;;;;;;4952590;28;20117;-53
2022/02/17 02:24:17;;;;;;;3.00;2.20;;;11.50;72.80;;;;;;4952068;28;20110;-52
2022/02/17 02:26:43;;;;;;;3.25;2.00;;;11.50;72.90;;;;;;4935492;29;20090;-50
2022/02/17 02:29:08;;;;;;;6.13;2.75;;;11.50;73.10;;;;;;4950567;29;20085;-52
2022/02/17 02:31:34;;;;;;;4.85;2.40;;;11.60;73.00;;;;;;4952938;28;20035;-52
2022/02/17 02:34:18;;;;;;;3.78;2.28;;;11.60;73.10;;;;;;4950849;29;20074;-53
2022/02/17 02:36:44;;;;;;;;;;;11.60;73.20;;;;;;4953175;29;20062;-52
2022/02/17 02:39:09;;;;;;;4.25;2.22;;;11.70;73.40;;;;;;4951955;28;20199;-52
2022/02/17 02:41:35;;;;;;;4.03;2.33;;;11.70;73.00;;;;;;4951713;29;20039;-54
2022/02/17 02:44:01;;;;;;;4.78;2.30;;;11.70;73.10;;;;;;4950984;29;20027;-53
2022/02/17 02:46:26;;;;;;;4.82;2.40;;;11.70;73.20;;;;;;4952925;28;20439;-53
2022/02/17 02:48:52;;;;;;;4.15;2.45;;;11.60;73.40;;;;;;4952614;28;20482;-53
2022/02/17 02:51:18;;;;;;;5.43;2.70;;;11.60;73.40;;;;;;4951348;28;20184;-53
2022/02/17 02:53:43;;;;;;;3.53;2.50;;;11.60;73.20;;;;;;4951004;29;20117;-53
2022/02/17 02:56:09;;;;;;;4.88;2.70;;;11.50;73.60;;;;;;4951828;28;20031;-53
2022/02/17 02:58:35;;;;;;;3.08;2.10;;;11.50;73.70;;;;;;4953168;28;20031;-53
2022/02/17 03:01:01;;;;;;;3.83;2.30;;;11.50;73.80;;;;;;4951653;28;20255;-57
2022/02/17 03:03:27;;;;;;;4.30;2.47;;;11.50;73.70;;;;;;4952974;28;20031;-51
2022/02/17 03:05:53;;;;;;;4.10;2.53;;;11.50;73.80;;;;;;4951246;29;20549;-50
2022/02/17 03:08:19;;;;;;;4.85;2.30;;;11.60;73.90;;;;;;4950522;29;20023;-53
2022/02/17 03:10:46;;;;;;;3.72;2.30;;;11.60;73.90;;;;;;4950861;29;20035;-54
2022/02/17 03:13:12;;;;;;;3.58;2.20;;;11.70;73.80;;;;;;4951766;28;20028;-50
2022/02/17 03:15:38;;;;;;;3.35;2.00;;;11.70;73.90;;;;;;4952703;28;20027;-53
2022/02/17 03:18:04;;;;;;;2.85;2.03;;;11.70;74.10;;;;;;4951974;28;20035;-51
2022/02/17 03:20:30;;;;;;;4.53;2.25;;;11.80;74.20;;;;;;4951045;29;20050;-53
2022/02/17 03:22:56;;;;;;;3.22;2.10;;;11.80;74.20;;;;;;4950782;29;20090;-51
2022/02/17 03:25:22;;;;;;;2.63;1.70;;;11.90;74.20;;;;;;4950244;28;20019;-53
2022/02/17 03:27:48;;;;;;;2.67;1.63;;;12.00;74.70;;;;;;4973299;28;20393;-51
2022/02/17 03:30:14;;;;;;;3.72;1.80;;;12.00;75.00;;;;;;4990052;28;20026;-51
2022/02/17 03:32:40;;;;;;;2.97;1.73;;;12.10;74.60;;;;;;4990774;28;20041;-52
2022/02/17 03:35:07;;;;;;;2.78;1.50;;;12.10;74.50;;;;;;4991640;28;20187;-50
2022/02/17 03:37:33;;;;;;;3.30;1.52;;;12.20;74.70;;;;;;4994303;28;20033;-53
2022/02/17 03:39:59;;;;;;;2.35;1.45;;;12.30;74.50;;;;;;4977212;28;20054;-53
2022/02/17 03:42:25;;;;;;;2.72;1.40;;;12.40;75.00;;;;;;4976318;28;20038;-54
2022/02/17 03:44:51;;;;;;;1.73;1.00;;;12.40;75.00;;;;;;4976843;28;20100;-55
2022/02/17 03:47:17;;;;;;;1.27;0.70;;;12.60;75.80;;;;;;4993798;28;20444;-49
2022/02/17 03:49:42;;;;;;;2.95;0.80;;;12.70;75.80;;;;;;4994537;28;20023;-52
2022/02/17 03:52:08;;;;;;;2.00;0.50;;;13.00;76.00;;;;;;4994283;28;20038;-52
2022/02/17 03:54:34;;;;;;;0.98;0.57;;;13.10;75.10;;;;;;4994405;28;20104;-51
2022/02/17 03:57:00;;;;;;;0.50;0.50;;;13.30;74.80;;;;;;4976396;28;20049;-53
2022/02/17 03:59:26;;;;;;;0.73;0.47;;;13.50;74.20;;;;;;4993930;28;20081;-51
2022/02/17 04:01:51;;;;;;;1.20;0.40;;;13.60;73.20;;;;;;4993885;28;20421;-54
2022/02/17 04:04:17;;;;;;;0.65;0.45;;;13.80;72.50;;;;;;4993655;28;20024;-50
2022/02/17 04:06:43;;;;;;;0.77;0.50;;;13.90;71.90;;;;;;4994096;28;20026;-51
2022/02/17 04:09:09;;;;;;;0.80;0.50;;;14.00;71.50;;;;;;4993693;28;20081;-53
2022/02/17 04:11:35;;;;;;;0.57;0.55;;;14.20;71.10;;;;;;4976559;28;20378;-52
2022/02/17 04:14:01;;;;;;;0.68;0.57;;;14.30;70.50;;;;;;4993840;28;20433;-55
2022/02/17 04:16:27;;;;;;;0.43;0.43;;;14.20;70.10;;;;;;4993843;28;20026;-52
2022/02/17 04:18:53;;;;;;;0.50;0.50;;;14.30;69.60;;;;;;4994163;28;20121;-54
2022/02/17 04:21:21;;;;;;;0.90;0.65;;;14.30;69.30;;;;;;4993285;28;20458;-54
2022/02/17 04:23:47;;;;;;;0.47;0.43;;;14.40;68.90;;;;;;4976678;28;20050;-52
2022/02/17 04:26:14;;;;;;;1.65;0.47;;;14.40;68.70;;;;;;4993516;28;20057;-53
2022/02/17 04:28:41;;;;;;;0.60;0.60;;;14.40;68.40;;;;;;4992973;28;20022;-54
2022/02/17 04:31:07;;;;;;;0.82;0.60;;;14.40;68.10;;;;;;4993326;28;20031;-51
2022/02/17 04:33:34;;;;;;;0.90;0.60;;;14.50;68.00;;;;;;4976381;28;20122;-54
2022/02/17 04:36:00;;;;;;;0.40;0.30;;;14.50;67.60;;;;;;4993612;28;20022;-51
2022/02/17 04:38:26;;;;;;;0.52;0.47;;;14.60;67.10;;;;;;4975598;28;20062;-53
2022/02/17 04:43:36;;;;;;;0.50;0.45;;;14.60;66.20;;;;;;4993743;28;20130;-53
2022/02/17 04:46:02;;;;;;;0.45;0.45;;;14.70;66.00;;;;;;4992671;28;20038;-56
2022/02/17 04:48:28;;;;;;;0.65;0.50;;;14.70;65.80;;;;;;4993782;28;20026;-53
2022/02/17 04:50:53;;;;;;;1.48;0.50;;;14.70;65.50;;;;;;4993455;28;20047;-53
2022/02/17 04:53:20;;;;;;;0.40;0.40;;;14.70;65.40;;;;;;4974512;28;20536;-52
2022/02/17 04:55:46;;;;;;;0.65;0.60;;;14.70;65.20;;;;;;4993557;28;20022;-53
2022/02/17 04:58:12;;;;;;;0.60;0.50;;;14.80;65.20;;;;;;4975426;28;20030;-54
2022/02/17 05:00:38;;;;;;;1.00;0.70;;;14.80;65.10;;;;;;4975916;28;20034;-52
2022/02/17 05:03:04;;;;;;;0.40;0.40;;;14.80;64.90;;;;;;4992555;28;20038;-58
2022/02/17 05:05:29;;;;;;;0.40;0.40;;;14.80;64.80;;;;;;4993716;28;20033;-53
2022/02/17 05:07:55;;;;;;;0.32;0.32;;;14.80;64.80;;;;;;4993041;28;20037;-54
2022/02/17 05:10:21;;;;;;;1.05;0.52;;;14.90;64.60;;;;;;4992429;28;20654;-50
2022/02/17 05:12:46;;;;;;;0.70;0.60;;;14.90;64.40;;;;;;4993201;28;20030;-51
2022/02/17 05:15:12;;;;;;;0.63;0.57;;;14.90;64.20;;;;;;4992101;28;20026;-51
2022/02/17 05:17:38;;;;;;;1.13;0.60;;;14.90;64.20;;;;;;4991572;28;20027;-53
2022/02/17 05:20:05;;;;;;;5.15;0.60;;;14.90;64.10;;;;;;4974889;28;20510;-54
2022/02/17 05:22:32;;;;;;;0.70;0.60;;;14.90;63.70;;;;;;4975531;28;20097;-52
2022/02/17 05:24:58;;;;;;;1.35;0.63;;;15.00;63.70;;;;;;4992386;28;20031;-52
2022/02/17 05:27:24;;;;;;;1.02;0.80;;;15.00;63.30;;;;;;4992028;28;20051;-53
2022/02/17 05:29:50;;;;;;;1.30;0.70;;;15.10;63.10;;;;;;4992773;28;20113;-53
2022/02/17 05:32:15;;;;;;;2.00;0.68;;;15.00;63.00;;;;;;4992402;28;20060;-52
2022/02/17 05:34:41;;;;;;;2.47;0.75;;;15.10;63.00;;;;;;4992733;28;20030;-51
2022/02/17 05:37:07;;;;;;;0.55;0.55;;;15.10;62.80;;;;;;4974709;28;20034;-54
2022/02/17 05:39:35;;;;;;;0.80;0.60;;;15.10;62.50;;;;;;4992739;28;20098;-53
2022/02/17 05:42:01;;;;;;;1.27;0.70;;;15.10;62.20;;;;;;4992245;28;20038;-55
2022/02/17 05:44:26;;;;;;;1.50;0.93;;;15.20;62.00;;;;;;4974781;28;20037;-53
2022/02/17 05:46:52;;;;;;;1.60;0.60;;;15.20;61.60;;;;;;4993032;28;20030;-51
2022/02/17 05:49:18;;;;;;;0.77;0.68;;;15.30;61.30;;;;;;4992455;28;20196;-52
2022/02/17 05:51:43;;;;;;;3.72;0.70;;;15.30;60.80;;;;;;4992294;28;20483;-53
2022/02/17 05:54:09;;;;;;;0.80;0.63;;;15.40;60.70;;;;;;4974477;28;20037;-51
2022/02/17 05:56:35;;;;;;;0.65;0.50;;;15.40;60.60;;;;;;4992325;28;20678;-54
2022/02/17 05:59:01;;;;;;;2.28;0.90;;;15.40;60.30;;;;;;4990946;28;20401;-57
2022/02/17 06:01:26;;;;;;;2.28;0.90;;;15.50;60.30;;;;;;4991510;28;20081;-51
2022/02/17 06:03:52;;;;;;;1.65;0.80;;;15.50;60.20;;;;;;4992368;28;20033;-54
2022/02/17 06:06:18;;;;;;;2.35;0.60;;;15.50;59.90;;;;;;4973577;28;20554;-52
2022/02/17 06:08:43;;;;;;;1.33;0.65;;;15.60;59.90;;;;;;4974106;28;20121;-54
2022/02/17 06:11:09;;;;;;;1.52;0.85;;;15.50;59.30;;;;;;4973565;28;20032;-52
2022/02/17 06:13:35;;;;;;;6.65;0.60;;;15.60;58.80;;;;;;4974619;28;20106;-55
2022/02/17 06:16:00;;;;;;;2.55;0.50;;;15.70;58.50;;;;;;4991920;28;20387;-54
2022/02/17 06:18:26;;;;;;;0.82;0.60;;;15.80;58.10;;;;;;4989439;28;20030;-52
2022/02/17 06:23:36;;;;;;;5.13;0.80;;;15.90;57.50;;;;;;4991568;28;20040;-52
2022/02/17 06:26:01;;;;;;;0.60;0.50;;;16.00;57.30;;;;;;4974337;28;20472;-52
2022/02/17 06:28:27;;;;;;;1.20;0.60;;;16.00;57.20;;;;;;4991194;28;20022;-54
2022/02/17 06:30:53;;;;;;;1.80;0.70;;;16.10;57.00;;;;;;4991941;28;20178;-53
2022/02/17 06:33:18;;;;;;;2.67;0.80;;;16.10;56.90;;;;;;4973274;28;20062;-51
2022/02/17 06:35:44;;;;;;;2.17;0.90;;;16.20;56.60;;;;;;4973955;28;20389;-53
2022/02/17 06:38:10;;;;;;;6.55;0.90;;;16.20;56.60;;;;;;4990800;28;20026;-52
2022/02/17 06:40:36;;;;;;;0.82;0.55;;;16.20;56.40;;;;;;4991254;28;20026;-50
2022/02/17 06:43:06;;;;;;;1.67;0.80;;;16.20;56.30;;;;;;4991151;28;20072;-51
2022/02/17 06:45:34;;;;;;;2.97;0.80;;;16.30;56.20;;;;;;4991349;28;20138;-50
2022/02/17 06:48:00;;;;;;;6.22;0.95;;;16.30;56.20;;;;;;4991774;28;20057;-51
2022/02/17 06:50:26;;;;;;;5.25;1.02;;;16.40;55.90;;;;;;4990253;28;20057;-49
2022/02/17 06:52:51;;;;;;;1.83;1.02;;;16.30;55.80;;;;;;4991406;28;20420;-53
2022/02/17 06:55:17;;;;;;;4.60;1.05;;;16.40;55.80;;;;;;4990520;28;20121;-51
2022/02/17 06:57:43;;;;;;;3.03;0.80;;;16.50;55.60;;;;;;4991253;28;20235;-52
2022/02/17 07:00:10;;;;;;;3.63;0.70;;;16.60;55.30;;;;;;4990451;28;20026;-52
2022/02/17 07:02:36;;;;;;;2.05;0.70;;;16.70;55.00;;;;;;4991281;28;20049;-54
2022/02/17 07:05:04;;;;;;;3.30;1.13;;;16.80;54.70;;;;;;4990993;28;20034;-51
2022/02/17 07:07:33;;;;;;;3.42;1.25;;;16.90;54.30;;;;;;4990675;28;20037;-50
2022/02/17 07:09:59;;;;;;;2.28;0.90;;;17.00;54.10;;;;;;4990842;28;20026;-51
2022/02/17 07:12:26;;;;;;;4.18;0.80;;;17.00;53.90;;;;;;4989944;28;20185;-53
2022/02/17 07:14:53;;;;;;;4.15;1.05;;;17.00;53.70;;;;;;4991266;28;20050;-55
2022/02/17 07:17:20;;;;;;;3.13;0.73;;;17.00;53.80;;;;;;4990482;28;20133;-53
2022/02/17 07:19:46;;;;;;;17.80;1.05;;;17.10;53.70;;;;;;4989882;28;20561;-52
2022/02/17 07:22:12;;;;;;;10.93;1.60;;;17.00;53.60;;;;;;4990643;28;20030;-53
2022/02/17 07:24:38;;;;;;;1.63;0.70;;;17.00;53.80;;;;;;4990696;28;20031;-54
2022/02/17 07:27:05;;;;;;;1.30;0.73;;;17.00;53.70;;;;;;4990424;28;20113;-55
2022/02/17 07:29:31;;;;;;;8.02;1.30;;;17.00;53.70;;;;;;4973500;28;20037;-53
2022/02/17 07:31:57;;;;;;;2.75;0.80;;;17.00;53.80;;;;;;4990352;28;20057;-52
2022/02/17 07:34:23;;;;;;;6.90;1.05;;;17.00;53.80;;;;;;4989824;28;20034;-52
2022/02/17 07:36:49;;;;;;;4.32;1.05;;;17.10;53.60;;;;;;4991121;28;20105;-49
2022/02/17 07:39:15;;;;;;;3.65;1.00;;;17.10;53.60;;;;;;4972785;28;20354;-55
2022/02/17 07:41:41;;;;;;;5.47;0.80;;;17.20;53.30;;;;;;4973452;28;20041;-51
2022/02/17 07:44:08;;;;;;;12.25;1.17;;;17.30;52.90;;;;;;4988850;28;20023;-52
2022/02/17 07:46:35;;;;;;;1.90;0.80;;;17.40;52.80;;;;;;4990959;28;20026;-50
2022/02/17 07:49:01;;;;;;;7.28;1.20;;;17.60;52.40;;;;;;4972820;28;20173;-52
2022/02/17 07:51:30;;;;;;;3.95;1.13;;;17.60;52.00;;;;;;4973975;28;20030;-54
2022/02/17 07:53:59;;;;;;;1.63;1.52;;;18.30;50.90;;;;;;4991719;28;20027;-54
2022/02/17 07:56:26;;;;;;;8.45;1.63;;;18.70;50.20;;;;;;4958312;28;20109;-49
2022/02/17 07:58:52;;;;;;;7.45;1.83;;;19.90;48.30;;;;;;4991290;28;20031;-51
2022/02/17 08:01:20;;;;;;;2.20;1.00;;;20.70;46.10;;;;;;4972866;28;20038;-51
2022/02/17 08:03:46;;;;;;;1.30;1.17;;;20.50;45.20;;;;;;4991020;28;20030;-53
2022/02/17 08:06:12;;;;;;;4.93;3.00;;;20.60;45.00;;;;;;4973081;28;20023;-53
2022/02/17 08:08:39;;;;;;;4.82;2.90;;;21.40;43.90;;;;;;4973537;28;20027;-53
2022/02/17 08:11:05;;;;;;;3.38;2.45;;;23.80;42.10;;;;;;4973049;28;20034;-54
2022/02/17 08:13:32;;;;;;;2.17;1.13;;;25.90;37.90;;;;;;4973467;28;20112;-54
2022/02/17 08:15:58;;;;;;;5.28;0.90;;;25.10;35.50;;;;;;4989843;28;20077;-52
2022/02/17 08:18:23;;;;;;;4.60;1.10;;;23.20;38.30;;;;;;4955665;28;20616;-53
2022/02/17 08:20:50;;;;;;;3.33;1.20;;;22.00;40.70;;;;;;4991476;28;20035;-53
2022/02/17 08:23:16;;;;;;;2.88;1.60;;;21.50;41.70;;;;;;4975988;28;20030;-55
2022/02/17 08:25:42;;;;;;;4.57;0.82;;;20.80;42.80;;;;;;4992790;28;20062;-54
2022/02/17 08:28:09;;;;;;;6.05;0.93;;;20.30;43.90;;;;;;4993621;28;20046;-58
2022/02/17 08:30:38;;;;;;;13.15;1.00;;;19.90;44.70;;;;;;4976021;28;20048;-58
2022/02/17 08:33:06;;;;;;;4.30;0.85;;;19.70;45.20;;;;;;4993249;28;20030;-59
2022/02/17 08:35:32;;;;;;;1.20;0.55;;;19.50;45.50;;;;;;4974560;28;20485;-60
2022/02/17 08:37:59;;;;;;;1.75;0.65;;;19.40;45.80;;;;;;4994320;28;20057;-58
2022/02/17 08:40:25;;;;;;;1.63;0.63;;;19.30;46.00;;;;;;4993460;28;20446;-60
2022/02/17 08:42:51;;;;;;;9.15;1.00;;;19.20;46.30;;;;;;4991331;28;20101;-63
2022/02/17 08:45:17;;;;;;;6.70;0.95;;;19.10;46.50;;;;;;4976142;28;20397;-63
2022/02/17 08:47:44;;;;;;;5.28;0.73;;;19.10;46.50;;;;;;4976034;28;20118;-64
2022/02/17 08:50:11;;;;;;;2.13;0.80;;;19.00;46.20;;;;;;4958332;28;20034;-64
2022/02/17 08:52:37;;;;;;;1.67;0.68;;;19.00;46.40;;;;;;4976082;28;20040;-65
2022/02/17 08:55:05;;;;;;;1.75;0.65;;;19.00;46.40;;;;;;4993395;28;20089;-61
2022/02/17 08:57:30;;;;;;;5.90;1.10;;;19.00;46.10;;;;;;4974268;28;20098;-65
2022/02/17 08:59:56;;;;;;;5.50;1.00;;;18.90;46.30;;;;;;4993087;28;20101;-64
2022/02/17 09:02:22;;;;;;;2.65;1.00;;;18.90;46.20;;;;;;4975450;28;20096;-65
2022/02/17 09:04:48;;;;;;;4.93;0.70;;;18.90;46.60;;;;;;4993632;28;20030;-65
2022/02/17 09:07:14;;;;;;;2.53;0.75;;;18.90;46.30;;;;;;4992391;28;20113;-65
2022/02/17 09:09:39;;;;;;;3.38;0.80;;;19.10;46.20;;;;;;4976475;28;20032;-65
2022/02/17 09:12:06;;;;;;;5.85;0.90;;;19.20;45.70;;;;;;4976320;28;20061;-65
2022/02/17 09:14:32;;;;;;;4.57;0.88;;;19.20;45.70;;;;;;4976144;28;20073;-68
2022/02/17 09:16:58;;;;;;;6.30;1.05;;;19.40;44.80;;;;;;4994502;28;20018;-65
2022/02/17 09:19:24;;;;;;;3.33;1.00;;;19.70;44.30;;;;;;4993281;28;20323;-66
2022/02/17 09:21:49;;;;;;;1.58;0.70;;;19.90;43.70;;;;;;4993698;28;20030;-65
2022/02/17 09:24:17;;;;;;;1.77;0.90;;;20.00;43.30;;;;;;4993225;28;20042;-65
2022/02/17 09:26:45;;;;;;;2.20;0.75;;;20.10;43.20;;;;;;4993632;28;20042;-65
2022/02/17 09:29:11;;;;;;;7.25;1.42;;;20.10;43.50;;;;;;4991810;28;20378;-64
2022/02/17 09:31:37;;;;;;;2.00;0.70;;;20.00;43.40;;;;;;4991611;28;20042;-66
2022/02/17 09:34:03;;;;;;;4.60;0.90;;;19.90;43.50;;;;;;4991668;28;20027;-64
2022/02/17 09:36:29;;;;;;;4.68;1.00;;;19.80;43.80;;;;;;4992314;28;20108;-64
2022/02/17 09:38:56;;;;;;;3.85;0.85;;;19.70;44.00;;;;;;4974871;28;20464;-65
2022/02/17 09:41:23;;;;;;;6.32;1.10;;;19.60;44.70;;;;;;4974387;28;20046;-65
2022/02/17 09:43:51;;;;;;;5.60;0.75;;;19.70;44.90;;;;;;4974850;28;20129;-63
2022/02/17 09:46:22;;;;;;;4.55;0.80;;;19.60;45.40;;;;;;4974239;28;20462;-66
2022/02/17 09:49:01;;;;;;;7.07;0.90;;;19.40;46.10;;;;;;4974408;28;20030;-66
2022/02/17 09:51:29;;;;;;;3.83;0.80;;;19.20;46.90;;;;;;4974555;28;20113;-67
2022/02/17 09:53:55;;;;;;;5.07;0.65;;;19.10;48.40;;;;;;4992660;28;20446;-67
2022/02/17 09:56:25;;;;;;;2.92;0.80;;;18.90;49.50;;;;;;4974251;28;20473;-66
2022/02/17 09:58:55;;;;;;;7.70;0.90;;;18.80;49.90;;;;;;4991878;28;20057;-66
2022/02/17 10:01:31;;;;;;;4.45;1.05;;;18.60;49.90;;;;;;4974456;28;20034;-67
2022/02/17 10:04:16;;;;;;;6.30;0.80;;;18.60;50.50;;;;;;4974680;28;20034;-66
2022/02/17 10:06:45;;;;;;;7.40;1.17;;;18.50;50.90;;;;;;4992008;28;20054;-66
2022/02/17 10:09:12;;;;;;;2.85;0.77;;;18.40;51.10;;;;;;4974348;28;20038;-66
2022/02/17 10:11:39;;;;;;;3.08;0.70;;;18.30;51.10;;;;;;4974135;28;20130;-67
2022/02/17 10:14:13;;;;;;;45.15;29.48;;;18.30;51.00;;;;;;4992531;28;20027;-66
2022/02/17 10:16:59;;;;;;;;;;;18.30;51.60;;;;;;4992517;28;20030;-66
2022/02/17 10:19:39;;;;;;;1.40;0.93;;;18.30;51.60;;;;;;4974223;28;19945;-66
2022/02/17 10:22:13;;;;;;;1.70;1.00;;;18.20;51.90;;;;;;4991921;28;20030;-65
2022/02/17 10:24:43;;;;;;;5.32;1.30;;;18.10;52.20;;;;;;4992060;28;20461;-66
2022/02/17 10:27:13;;;;;;;7.85;1.27;;;18.10;52.40;;;;;;4990507;28;20066;-64
2022/02/17 10:29:49;;;;;;;5.15;1.27;;;18.00;52.50;;;;;;4992766;28;20030;-67
2022/02/17 10:32:15;;;;;;;2.25;1.05;;;18.00;52.50;;;;;;4991752;28;20035;-64
2022/02/17 10:34:42;;;;;;;2.83;1.15;;;18.00;52.80;;;;;;4973962;28;20026;-64
2022/02/17 10:37:11;;;;;;;6.70;1.60;;;18.00;53.60;;;;;;4974474;28;20473;-66
2022/02/17 10:39:42;;;;;;;4.75;1.63;;;17.90;54.50;;;;;;4973913;28;20026;-66
2022/02/17 10:42:10;;;;;;;3.65;1.23;;;17.90;55.50;;;;;;4992643;28;20026;-65
2022/02/17 10:44:42;;;;;;;7.82;1.77;;;17.90;56.90;;;;;;4990867;28;20030;-64
2022/02/17 10:47:12;;;;;;;3.35;1.35;;;17.70;57.70;;;;;;4974211;28;20022;-64
2022/02/17 10:49:52;;;;;;;6.75;1.55;;;17.60;54.20;;;;;;4991195;28;20118;-65
2022/02/17 10:52:33;;;;;;;4.40;1.17;;;17.50;53.90;;;;;;4971895;28;20121;-69
2022/02/17 10:55:20;;;;;;;6.93;2.22;;;17.40;53.70;;;;;;4969714;28;20022;-66
2022/02/17 10:57:47;;;;;;;6.93;2.20;;;17.40;52.80;;;;;;4970908;28;20026;-65
2022/02/17 11:00:21;;;;;;;5.80;1.83;;;17.30;53.00;;;;;;4973935;28;20084;-64
2022/02/17 11:02:49;;;;;;;7.18;2.00;;;17.20;52.60;;;;;;4990369;28;20034;-64
2022/02/17 11:05:16;;;;;;;8.82;1.90;;;17.10;53.40;;;;;;4990477;28;20038;-66
2022/02/17 11:07:45;;;;;;;5.70;1.50;;;16.90;52.50;;;;;;4991098;28;20022;-67
2022/02/17 11:10:12;;;;;;;6.43;1.75;;;16.70;51.70;;;;;;4973693;28;20033;-68
2022/02/17 11:12:40;;;;;;;5.88;1.90;;;16.80;51.90;;;;;;4990771;28;20053;-64
2022/02/17 11:15:08;;;;;;;4.43;1.88;;;16.80;51.60;;;;;;4974478;28;20100;-67
2022/02/17 11:17:38;;;;;;;7.15;2.00;;;16.90;51.80;;;;;;4990837;28;20096;-66
2022/02/17 11:20:17;;;;;;;4.90;1.60;;;16.70;51.40;;;;;;4990721;28;20045;-67
2022/02/17 11:22:44;;;;;;;7.15;2.10;;;16.60;51.70;;;;;;4972649;28;20034;-66
2022/02/17 11:25:11;;;;;;;6.07;1.67;;;16.60;51.60;;;;;;4973488;28;20034;-68
2022/02/17 11:28:00;;;;;;;8.93;2.10;;;16.60;51.10;;;;;;4973047;28;20481;-66
2022/02/17 11:30:27;;;;;;;3.05;1.20;;;16.50;50.70;;;;;;4990821;28;20031;-66
2022/02/17 11:33:22;;;;;;;10.52;1.55;;;16.50;48.90;;;;;;4989929;28;20053;-67
2022/02/17 11:35:52;;;;;;;12.13;2.10;;;16.40;48.70;;;;;;4973575;28;20067;-65
2022/02/17 11:38:32;;;;;;;4.03;1.75;;;16.40;48.30;;;;;;4990677;28;20029;-64
2022/02/17 11:41:10;;;;;;;5.20;1.90;;;16.40;48.30;;;;;;4990840;28;20070;-67
2022/02/17 11:43:38;;;;;;;7.15;1.77;;;16.50;48.50;;;;;;4991031;28;20496;-66
2022/02/17 11:46:04;;;;;;;12.45;2.42;;;16.50;48.60;;;;;;4991142;28;20100;-66
2022/02/17 11:48:38;;;;;;;12.80;2.42;;;16.50;49.00;;;;;;4972949;28;20546;-66
2022/02/17 11:51:11;;;;;;;7.32;1.92;;;16.60;50.70;;;;;;4991190;28;20065;-65
2022/02/17 11:53:39;;;;;;;10.50;2.13;;;16.50;50.60;;;;;;4990377;28;20477;-65
2022/02/17 11:56:15;;;;;;;4.78;1.90;;;16.40;50.60;;;;;;4975619;28;20465;-68
2022/02/17 11:58:41;;;;;;;9.13;4.20;;;16.50;50.80;;;;;;4974866;28;20370;-66
2022/02/17 12:01:22;;;;;;;10.25;2.55;;;16.60;51.30;;;;;;4976870;28;20094;-65
2022/02/17 12:03:58;;;;;;;8.30;2.53;;;16.70;51.10;;;;;;4976751;28;20037;-66
2022/02/17 12:06:41;;;;;;;7.55;2.47;;;16.70;51.00;;;;;;4976103;28;20030;-66
2022/02/17 12:09:08;;;;;;;7.67;2.80;;;16.80;50.80;;;;;;4994249;28;20022;-64
2022/02/17 12:11:37;;;;;;;6.50;2.15;;;16.90;50.90;;;;;;4975774;28;20026;-64
2022/02/17 12:14:05;;;;;;;6.95;2.40;;;17.00;51.20;;;;;;4994405;28;20061;-66
2022/02/17 12:16:37;;;;;;;4.88;1.60;;;17.10;51.70;;;;;;4976612;28;20131;-66
2022/02/17 12:19:16;;;;;;;8.80;2.28;;;17.10;52.10;;;;;;4974734;28;20030;-68
2022/02/17 12:21:44;;;;;;;6.13;2.28;;;16.90;53.00;;;;;;4992805;28;20540;-67
2022/02/17 12:24:12;;;;;;;10.57;2.88;;;16.90;53.40;;;;;;4974428;28;20031;-67
2022/02/17 12:26:44;;;;;;;27.75;15.20;;;17.00;53.90;;;;;;4959822;28;20059;-68
2022/02/17 12:29:26;;;;;;;11.30;3.05;;;17.00;53.70;;;;;;4951316;29;20037;-68
2022/02/17 12:31:54;;;;;;;14.10;4.68;;;17.10;53.40;;;;;;4953428;28;20122;-67
2022/02/17 12:34:21;;;;;;;8.80;3.53;;;17.20;53.00;;;;;;4955098;28;20112;-65
2022/02/17 12:36:46;;;;;;;5.63;2.85;;;17.10;52.80;;;;;;4953165;28;20027;-68
2022/02/17 12:39:13;;;;;;;9.80;3.50;;;17.00;52.90;;;;;;4952315;28;20158;-66
2022/02/17 12:41:53;;;;;;;8.60;2.35;;;16.90;52.70;;;;;;4951259;29;20439;-67
2022/02/17 12:44:30;;;;;;;6.82;1.90;;;16.90;52.30;;;;;;4953289;28;20027;-68
2022/02/17 12:46:57;;;;;;;9.35;2.50;;;16.70;52.50;;;;;;4953329;29;20407;-66
2022/02/17 12:49:25;;;;;;;6.03;2.38;;;16.80;53.40;;;;;;4952900;28;20028;-67
2022/02/17 12:51:51;;;;;;;9.07;2.65;;;16.90;53.20;;;;;;4951175;29;20416;-67
2022/02/17 12:54:17;;;;;;;11.05;3.00;;;16.90;52.30;;;;;;4953021;28;20023;-66
2022/02/17 12:56:44;;;;;;;9.90;2.83;;;17.00;52.50;;;;;;4954745;28;20027;-68